Time;durP1;ratioP1;P1;durP2;ratioP2;P2;SDS_P1;SDS_P2;PMS_P1;PMS_P2;Temp;Humidity;BMP_temperature;BMP_pressure;BME280_temperature;BME280_humidity;BME280_pressure;Samples;Min_cycle;Max_cycle;Signal;HPM_P1;HPM_P2
2021/05/28 00:02:00;;;;;;;12.88;5.03;;;;;;;9.61;100.00;101775.72;5085838;28;20036;-73
2021/05/28 00:04:26;;;;;;;11.63;4.55;;;;;;;9.59;100.00;101771.38;5078369;28;20156;-73
2021/05/28 00:06:51;;;;;;;10.82;4.45;;;;;;;9.57;100.00;101773.22;5067020;28;20123;-73
2021/05/28 00:09:17;;;;;;;25.63;5.68;;;;;;;9.53;100.00;101775.19;5083254;28;20031;-73
2021/05/28 00:11:42;;;;;;;12.65;4.93;;;;;;;9.47;100.00;101770.09;5085071;28;20640;-72
2021/05/28 00:14:08;;;;;;;8.23;4.40;;;;;;;9.42;100.00;101780.13;5067120;28;20737;-72
2021/05/28 00:16:33;;;;;;;8.13;4.05;;;;;;;9.39;100.00;101774.91;5067971;28;20532;-73
2021/05/28 00:18:59;;;;;;;7.78;3.90;;;;;;;9.35;100.00;101775.97;5084878;28;20110;-73
2021/05/28 00:21:24;;;;;;;9.50;4.50;;;;;;;9.31;100.00;101777.06;5083207;28;20055;-72
2021/05/28 00:23:50;;;;;;;10.63;4.45;;;;;;;9.21;100.00;101770.31;5067776;28;20126;-73
2021/05/28 00:26:15;;;;;;;5.55;4.35;;;;;;;9.16;100.00;101775.00;5083580;28;20034;-72
2021/05/28 00:28:47;;;;;;;8.48;4.80;;;;;;;9.07;100.00;101778.06;5051380;28;20035;-73
2021/05/28 00:31:12;;;;;;;9.70;4.80;;;;;;;9.03;100.00;101781.78;5066068;28;20040;-72
2021/05/28 00:33:37;;;;;;;9.05;5.20;;;;;;;9.02;100.00;101780.03;5083884;28;20073;-72
2021/05/28 00:36:03;;;;;;;12.35;5.40;;;;;;;9.01;100.00;101783.69;5073552;28;20038;-73
2021/05/28 00:38:29;;;;;;;12.75;5.57;;;;;;;9.01;100.00;101795.25;5069095;28;20027;-72
2021/05/28 00:40:54;;;;;;;12.40;5.60;;;;;;;9.00;100.00;101784.59;5069317;28;20501;-72
2021/05/28 00:43:19;;;;;;;11.55;5.00;;;;;;;8.98;100.00;101794.50;5083532;28;20593;-71
2021/05/28 00:45:45;;;;;;;8.63;4.50;;;;;;;8.96;100.00;101794.56;5076970;28;20028;-73
2021/05/28 00:48:10;;;;;;;7.78;4.80;;;;;;;8.95;100.00;101800.00;5083219;28;20051;-71
2021/05/28 00:50:36;;;;;;;9.90;5.07;;;;;;;8.93;100.00;101808.97;5067697;28;20020;-72
2021/05/28 00:53:01;;;;;;;14.18;4.68;;;;;;;8.90;100.00;101802.84;5066174;28;20747;-72
2021/05/28 00:55:27;;;;;;;9.73;5.28;;;;;;;8.90;100.00;101808.19;5065641;28;20067;-72
2021/05/28 00:57:54;;;;;;;11.93;5.00;;;;;;;8.86;100.00;101815.50;5084521;28;20047;-72
2021/05/28 01:00:24;;;;;;;8.93;5.63;;;;;;;8.85;100.00;101813.75;5071831;28;20032;-72
2021/05/28 01:02:50;;;;;;;8.13;4.68;;;;;;;8.84;100.00;101809.31;5052409;28;20497;-72
2021/05/28 01:05:15;;;;;;;10.18;4.90;;;;;;;8.82;100.00;101813.88;5059921;28;20050;-71
2021/05/28 01:07:41;;;;;;;10.60;5.68;;;;;;;8.79;100.00;101805.94;5084936;28;20086;-71
2021/05/28 01:10:07;;;;;;;7.70;4.72;;;;;;;8.77;100.00;101809.59;5076459;28;20115;-72
2021/05/28 01:12:32;;;;;;;12.20;4.75;;;;;;;8.74;100.00;101802.59;5085192;28;20506;-72
2021/05/28 01:14:57;;;;;;;9.57;5.10;;;;;;;8.70;100.00;101808.13;5083727;28;20028;-72
2021/05/28 01:17:23;;;;;;;9.80;5.35;;;;;;;8.62;100.00;101800.41;5065572;28;20043;-72
2021/05/28 01:19:48;;;;;;;12.27;4.97;;;;;;;8.52;100.00;101807.88;5085320;28;20040;-72
2021/05/28 01:22:18;;;;;;;8.15;4.45;;;;;;;8.46;100.00;101805.44;5084382;28;20032;-73
2021/05/28 01:24:44;;;;;;;9.18;4.28;;;;;;;8.44;100.00;101812.69;5084817;28;20035;-72
2021/05/28 01:27:10;;;;;;;10.80;5.03;;;;;;;8.45;100.00;101805.53;5068055;28;20054;-72
2021/05/28 01:29:36;;;;;;;9.48;4.60;;;;;;;8.44;100.00;101799.31;5084931;28;20122;-71
2021/05/28 01:32:01;;;;;;;14.43;5.75;;;;;;;8.42;100.00;101795.81;5084466;28;20543;-71
2021/05/28 01:34:27;;;;;;;5.82;4.85;;;;;;;8.41;100.00;101795.84;5088216;28;20561;-72
2021/05/28 01:36:52;;;;;;;13.93;4.65;;;;;;;8.39;100.00;101803.09;5087054;28;20119;-71
2021/05/28 01:39:18;;;;;;;12.23;5.88;;;;;;;8.37;100.00;101796.91;5077438;28;20024;-72
2021/05/28 01:41:43;;;;;;;10.07;5.68;;;;;;;8.34;100.00;101791.66;5083127;28;20089;-72
2021/05/28 01:44:10;;;;;;;11.88;5.20;;;;;;;8.34;100.00;101799.69;5087096;28;20058;-72
2021/05/28 01:46:36;;;;;;;11.48;5.25;;;;;;;8.30;100.00;101790.91;5063187;28;20028;-71
2021/05/28 01:49:03;;;;;;;11.15;5.47;;;;;;;8.28;100.00;101798.09;5068596;28;20511;-71
2021/05/28 01:51:30;;;;;;;13.75;4.95;;;;;;;8.26;100.00;101804.44;5086501;28;20128;-72
2021/05/28 01:53:56;;;;;;;7.80;5.43;;;;;;;8.23;100.00;101800.06;5069260;28;20184;-72
2021/05/28 01:56:22;;;;;;;7.93;3.97;;;;;;;8.20;100.00;101799.31;5085313;28;20498;-72
2021/05/28 01:58:48;;;;;;;9.15;4.80;;;;;;;8.18;100.00;101798.50;5086030;28;20134;-72
2021/05/28 02:01:13;;;;;;;11.32;5.53;;;;;;;8.15;100.00;101795.94;5091811;28;20408;-72
2021/05/28 02:03:38;;;;;;;8.90;5.15;;;;;;;8.13;100.00;101788.84;5074615;28;20072;-72
2021/05/28 02:06:04;;;;;;;10.65;5.50;;;;;;;8.10;100.00;101796.97;5063844;28;20027;-72
2021/05/28 02:08:30;;;;;;;11.52;5.15;;;;;;;8.10;100.00;101805.00;5086332;28;20158;-72
2021/05/28 02:10:55;;;;;;;11.65;6.10;;;;;;;8.09;100.00;101805.03;5061995;28;20126;-71
2021/05/28 02:13:21;;;;;;;10.48;5.90;;;;;;;8.05;100.00;101804.31;5085389;28;20032;-72
2021/05/28 02:15:46;;;;;;;12.10;5.50;;;;;;;8.05;100.00;101803.44;5083975;28;20036;-71
2021/05/28 02:18:12;;;;;;;11.75;5.93;;;;;;;8.01;100.00;101804.47;5090115;28;20361;-72
2021/05/28 02:20:37;;;;;;;16.52;6.03;;;;;;;7.98;100.00;101802.78;5085915;28;20028;-72
2021/05/28 02:23:03;;;;;;;8.15;5.38;;;;;;;7.97;100.00;101811.72;5085423;28;20059;-71
2021/05/28 02:25:29;;;;;;;13.77;5.20;;;;;;;7.93;100.00;101804.75;5067976;28;20028;-71
2021/05/28 02:27:54;;;;;;;10.25;5.45;;;;;;;7.91;100.00;101798.56;5083386;28;20504;-71
2021/05/28 02:30:20;;;;;;;13.55;5.35;;;;;;;7.87;100.00;101802.28;5085711;28;20377;-71
2021/05/28 02:32:45;;;;;;;14.60;5.00;;;;;;;7.84;100.00;101805.06;5085270;28;20059;-71
2021/05/28 02:35:12;;;;;;;10.27;5.18;;;;;;;7.82;100.00;101798.91;5086617;28;20444;-71
2021/05/28 02:37:38;;;;;;;11.63;5.90;;;;;;;7.80;100.00;101799.88;5084761;28;20463;-72
2021/05/28 02:40:05;;;;;;;11.55;5.22;;;;;;;7.76;100.00;101799.13;5087022;28;20123;-72
2021/05/28 02:42:31;;;;;;;9.73;5.10;;;;;;;7.74;100.00;101800.97;5082609;28;20082;-71
2021/05/28 02:44:56;;;;;;;12.25;5.45;;;;;;;7.71;100.00;101801.09;5086142;28;20496;-72
2021/05/28 02:47:22;;;;;;;7.63;5.47;;;;;;;7.69;100.00;101802.94;5085456;28;20128;-71
2021/05/28 02:49:51;;;;;;;10.95;5.30;;;;;;;7.67;100.00;101811.00;5087969;28;20019;-72
2021/05/28 02:52:17;;;;;;;8.63;5.68;;;;;;;7.65;100.00;101806.66;5083532;28;20753;-71
2021/05/28 02:54:44;;;;;;;11.88;5.18;;;;;;;7.61;100.00;101813.03;5085980;28;20177;-72
2021/05/28 02:57:10;;;;;;;8.98;5.82;;;;;;;7.59;100.00;101815.75;5072996;28;20055;-72
2021/05/28 02:59:35;;;;;;;9.15;5.40;;;;;;;7.57;100.00;101819.41;5084486;28;20060;-72
2021/05/28 03:02:01;;;;;;;14.38;5.95;;;;;;;7.55;100.00;101826.59;5080331;28;20052;-72
2021/05/28 03:04:27;;;;;;;11.55;5.28;;;;;;;7.52;100.00;101824.03;5071737;28;20153;-71
2021/05/28 03:06:53;;;;;;;7.53;5.55;;;;;;;7.48;100.00;101819.72;5082854;28;20486;-71
2021/05/28 03:09:18;;;;;;;10.15;6.03;;;;;;;7.43;100.00;101816.31;5067082;28;20024;-71
2021/05/28 03:11:43;;;;;;;10.73;5.60;;;;;;;7.39;100.00;101820.91;5084635;28;20043;-71
2021/05/28 03:14:09;;;;;;;8.68;6.20;;;;;;;7.35;100.00;101829.94;5067218;28;20039;-72
2021/05/28 03:16:35;;;;;;;12.52;5.15;;;;;;;7.33;100.00;101831.81;5084494;28;20032;-71
2021/05/28 03:19:03;;;;;;;8.55;5.43;;;;;;;7.31;100.00;101834.50;5070224;28;20554;-71
2021/05/28 03:23:58;;;;;;;9.38;6.10;;;;;;;7.28;100.00;101844.44;5084349;28;20224;-72
2021/05/28 03:26:25;;;;;;;9.93;5.88;;;;;;;7.27;100.00;101848.03;5085949;28;20380;-71
2021/05/28 03:28:51;;;;;;;9.75;5.53;;;;;;;7.22;100.00;101842.81;5069002;28;20033;-71
2021/05/28 03:31:17;;;;;;;11.45;5.72;;;;;;;7.17;100.00;101847.44;5085076;28;20032;-71
2021/05/28 03:33:43;;;;;;;10.20;5.90;;;;;;;7.11;100.00;101852.09;5066235;28;20046;-72
2021/05/28 03:36:09;;;;;;;20.10;7.13;;;;;;;7.05;100.00;101847.81;5086048;28;20563;-71
2021/05/28 03:38:35;;;;;;;10.23;6.47;;;;;;;7.02;100.00;101852.41;5086033;28;20031;-72
2021/05/28 03:41:01;;;;;;;11.65;6.03;;;;;;;6.97;100.00;101849.00;5068930;28;20043;-71
2021/05/28 03:43:26;;;;;;;14.18;6.75;;;;;;;6.94;100.00;101851.75;5085522;28;20606;-71
2021/05/28 03:45:52;;;;;;;11.73;6.00;;;;;;;6.93;100.00;101850.88;5085751;28;20080;-72
2021/05/28 03:48:18;;;;;;;9.77;6.00;;;;;;;6.91;100.00;101856.25;5084793;28;20032;-71
2021/05/28 03:50:44;;;;;;;11.88;6.70;;;;;;;6.91;100.00;101861.59;5083568;28;20123;-72
2021/05/28 03:53:09;;;;;;;11.27;6.63;;;;;;;6.93;100.00;101860.69;5086017;28;20031;-72
2021/05/28 03:55:35;;;;;;;12.23;7.55;;;;;;;6.95;100.00;101872.19;5068512;28;20029;-72
2021/05/28 03:58:00;;;;;;;10.82;6.68;;;;;;;6.97;100.00;101871.25;5083529;28;20040;-71
2021/05/28 04:00:26;;;;;;;12.40;6.28;;;;;;;6.97;100.00;101871.25;5084350;28;20028;-72
2021/05/28 04:02:52;;;;;;;14.13;7.60;;;;;;;6.97;100.00;101868.56;5064057;28;20032;-71
2021/05/28 04:05:17;;;;;;;11.32;7.15;;;;;;;6.95;100.00;101862.41;5066210;28;20099;-70
2021/05/28 04:07:43;;;;;;;10.30;6.65;;;;;;;6.94;100.00;101865.97;5085202;28;20039;-72
2021/05/28 04:10:09;;;;;;;11.75;7.75;;;;;;;6.93;100.00;101856.22;5085666;28;20378;-70
2021/05/28 04:12:35;;;;;;;12.60;7.25;;;;;;;6.91;100.00;101869.59;5083462;28;20423;-71
2021/05/28 04:15:00;;;;;;;15.35;7.43;;;;;;;6.90;100.00;101859.88;5065441;28;20057;-71
2021/05/28 04:17:26;;;;;;;9.75;6.85;;;;;;;6.90;100.00;101864.34;5083141;28;20111;-70
2021/05/28 04:19:51;;;;;;;15.63;7.55;;;;;;;6.91;100.00;101874.09;5075190;28;20028;-71
2021/05/28 04:22:16;;;;;;;13.88;7.30;;;;;;;6.96;100.00;101868.63;5066120;28;20099;-71
2021/05/28 04:24:42;;;;;;;15.45;7.10;;;;;;;6.99;100.00;101881.84;5069849;28;20067;-71
2021/05/28 04:27:07;;;;;;;16.52;7.03;;;;;;;7.04;100.00;101882.56;5065793;28;20519;-72
2021/05/28 04:29:33;;;;;;;14.55;9.18;;;;;;;7.08;100.00;101878.91;5083676;28;20023;-71
2021/05/28 04:31:58;;;;;;;13.48;7.60;;;;;;;7.10;100.00;101872.56;5070516;28;20036;-71
2021/05/28 04:34:24;;;;;;;10.20;7.13;;;;;;;7.14;100.00;101882.25;5082332;28;20147;-71
2021/05/28 04:36:49;;;;;;;11.13;7.78;;;;;;;7.19;100.00;101890.13;5081362;28;20031;-71
2021/05/28 04:39:15;;;;;;;16.83;7.03;;;;;;;7.22;100.00;101890.88;5072792;28;20446;-71
2021/05/28 04:41:41;;;;;;;14.57;8.07;;;;;;;7.27;100.00;101890.75;5083182;28;20251;-71
2021/05/28 04:44:07;;;;;;;10.75;7.55;;;;;;;7.32;100.00;101894.16;5069583;28;20028;-71
2021/05/28 04:46:33;;;;;;;15.32;8.75;;;;;;;7.37;100.00;101896.66;5076091;28;20519;-71
2021/05/28 04:48:58;;;;;;;16.17;8.32;;;;;;;7.42;100.00;101906.28;5049310;28;20283;-72
2021/05/28 04:51:24;;;;;;;18.48;9.65;;;;;;;7.48;100.00;101908.75;5085222;28;20035;-70
2021/05/28 04:53:49;;;;;;;14.57;9.60;;;;;;;7.56;100.00;101911.16;5064215;28;20032;-71
2021/05/28 04:56:15;;;;;;;19.95;10.07;;;;;;;7.65;100.00;101910.88;5089570;28;20467;-71
2021/05/28 04:58:41;;;;;;;18.85;10.45;;;;;;;7.74;100.00;101907.88;5083814;28;20082;-71
2021/05/28 05:01:07;;;;;;;24.00;13.20;;;;;;;7.87;100.00;101917.25;5065098;28;20020;-70
2021/05/28 05:03:32;;;;;;;24.23;13.80;;;;;;;7.96;100.00;101906.22;5078138;28;20535;-72
2021/05/28 05:05:57;;;;;;;24.92;13.20;;;;;;;8.04;100.00;101914.84;5063111;28;20028;-71
2021/05/28 05:08:23;;;;;;;26.63;14.50;;;;;;;8.10;100.00;101909.28;5083292;28;20063;-71
2021/05/28 05:10:48;;;;;;;17.70;12.50;;;;;;;8.16;100.00;101913.56;5090344;28;20032;-71
2021/05/28 05:13:15;;;;;;;22.25;13.38;;;;;;;8.26;100.00;101916.78;5081766;28;20026;-71
2021/05/28 05:15:41;;;;;;;33.30;15.00;;;;;;;8.43;100.00;101914.41;5071646;28;20024;-71
2021/05/28 05:18:07;;;;;;;28.83;14.95;;;;;;;8.51;100.00;101923.03;5087154;28;20482;-71
2021/05/28 05:20:34;;;;;;;42.88;17.67;;;;;;;8.62;100.00;101936.03;5090472;28;20024;-71
2021/05/28 05:22:59;;;;;;;40.67;17.77;;;;;;;8.69;100.00;101929.50;5071410;28;20450;-72
2021/05/28 05:25:25;;;;;;;47.78;20.42;;;;;;;8.78;100.00;101935.38;5073028;28;20028;-71
2021/05/28 05:27:50;;;;;;;46.67;18.92;;;;;;;8.91;100.00;101942.03;5090651;28;20028;-72
2021/05/28 05:30:16;;;;;;;52.78;20.63;;;;;;;8.88;100.00;101944.84;5092782;28;20384;-70
2021/05/28 05:32:42;;;;;;;47.67;19.48;;;;;;;8.85;100.00;101947.63;5088244;28;20024;-71
2021/05/28 05:35:08;;;;;;;43.65;18.52;;;;;;;8.76;100.00;101952.44;5091510;28;20541;-71
2021/05/28 05:37:33;;;;;;;52.88;21.95;;;;;;;8.77;100.00;101951.50;5074641;28;20035;-72
2021/05/28 05:39:59;;;;;;;49.33;20.40;;;;;;;8.74;100.00;101951.63;5091173;28;20035;-72
2021/05/28 05:42:25;;;;;;;63.85;24.88;;;;;;;8.81;100.00;101948.66;5073136;28;20028;-71
2021/05/28 05:44:50;;;;;;;78.55;27.00;;;;;;;8.80;100.00;101952.28;5062557;28;20028;-72
2021/05/28 05:47:15;;;;;;;98.43;28.98;;;;;;;8.85;100.00;101960.13;5088334;28;20030;-71
2021/05/28 05:49:41;;;;;;;82.18;28.08;;;;;;;8.81;100.00;101948.66;5089974;28;20381;-71
2021/05/28 05:52:06;;;;;;;114.20;30.20;;;;;;;8.86;100.00;101965.44;5075009;28;20503;-72
2021/05/28 05:54:32;;;;;;;104.50;32.13;;;;;;;8.96;100.00;101957.91;5073049;28;20024;-72
2021/05/28 05:56:58;;;;;;;117.28;32.25;;;;;;;8.99;100.00;101955.13;5056904;28;20110;-72
2021/05/28 05:59:24;;;;;;;108.93;30.30;;;;;;;8.96;100.00;101963.25;5091021;28;20074;-72
2021/05/28 06:01:50;;;;;;;121.15;31.83;;;;;;;9.00;100.00;101958.69;5084210;28;20536;-72
2021/05/28 06:04:15;;;;;;;111.20;31.67;;;;;;;8.99;100.00;101956.94;5070804;28;20032;-71
2021/05/28 06:06:41;;;;;;;103.28;32.28;;;;;;;8.90;100.00;101967.06;5090000;28;20038;-71
2021/05/28 06:09:07;;;;;;;95.68;34.28;;;;;;;8.86;100.00;101970.78;5076596;28;20027;-71
2021/05/28 06:11:32;;;;;;;83.72;32.95;;;;;;;9.00;100.00;101964.91;5065823;28;20070;-72
2021/05/28 06:13:58;;;;;;;104.07;33.85;;;;;;;9.05;100.00;101962.94;5086803;28;20484;-71
2021/05/28 06:16:23;;;;;;;106.40;35.35;;;;;;;9.06;100.00;101962.00;5090317;28;20107;-72
2021/05/28 06:18:49;;;;;;;105.43;35.92;;;;;;;8.95;100.00;101963.34;5078975;28;20028;-72
2021/05/28 06:21:14;;;;;;;92.25;35.40;;;;;;;8.97;100.00;101965.03;5069356;28;20127;-71
2021/05/28 06:23:40;;;;;;;96.72;34.45;;;;;;;9.06;100.00;101969.16;5086436;28;20081;-71
2021/05/28 06:26:05;;;;;;;119.80;36.30;;;;;;;9.10;100.00;101976.13;5072797;28;20314;-71
2021/05/28 06:28:31;;;;;;;88.22;34.40;;;;;;;9.09;100.00;101969.91;5069783;28;20028;-72
2021/05/28 06:30:56;;;;;;;98.82;35.13;;;;;;;9.20;100.00;101982.88;5073011;28;20035;-71
2021/05/28 06:33:22;;;;;;;97.28;34.17;;;;;;;9.24;100.00;101977.38;5087599;28;20038;-72
2021/05/28 06:35:47;;;;;;;93.53;34.72;;;;;;;9.29;100.00;101977.19;5085906;28;20034;-72
2021/05/28 06:38:13;;;;;;;82.35;33.88;;;;;;;9.31;100.00;101978.00;5087749;28;20766;-71
2021/05/28 06:40:39;;;;;;;82.13;32.47;;;;;;;9.38;100.00;101982.16;5087247;28;20031;-72
2021/05/28 06:43:06;;;;;;;78.47;31.38;;;;;;;9.33;100.00;101976.13;5072812;28;20491;-72
2021/05/28 06:45:32;;;;;;;97.25;33.83;;;;;;;9.43;100.00;101985.56;5082874;28;20512;-72
2021/05/28 06:47:58;;;;;;;79.03;31.63;;;;;;;9.43;100.00;101980.19;5086314;28;20119;-72
2021/05/28 06:50:24;;;;;;;86.15;34.65;;;;;;;9.45;100.00;101981.00;5088829;28;20837;-72
2021/05/28 06:52:49;;;;;;;93.55;36.10;;;;;;;9.54;100.00;101994.03;5079391;28;20039;-71
2021/05/28 06:55:15;;;;;;;83.40;32.60;;;;;;;9.71;100.00;101996.03;5086125;28;20024;-73
2021/05/28 06:57:41;;;;;;;77.68;32.05;;;;;;;9.66;100.00;101988.19;5087321;28;20270;-73
2021/05/28 07:00:08;;;;;;;78.90;32.65;;;;;;;9.64;100.00;102000.78;5086321;28;20120;-72
2021/05/28 07:02:34;;;;;;;82.65;32.28;;;;;;;9.79;100.00;101998.41;5063934;28;20028;-71
2021/05/28 07:05:00;;;;;;;78.38;31.33;;;;;;;9.86;100.00;101994.56;5083539;28;20127;-72
2021/05/28 07:07:25;;;;;;;82.97;34.45;;;;;;;9.90;100.00;102002.41;5065913;28;20124;-73
2021/05/28 07:09:51;;;;;;;76.88;31.35;;;;;;;10.06;100.00;102003.50;5090134;28;20036;-73
2021/05/28 07:12:16;;;;;;;81.50;32.88;;;;;;;10.02;100.00;102007.25;5084507;28;20119;-72
2021/05/28 07:14:42;;;;;;;77.38;32.53;;;;;;;10.10;100.00;102005.16;5070463;28;20085;-72
2021/05/28 07:17:07;;;;;;;79.60;33.05;;;;;;;10.07;100.00;102010.63;5066564;28;20104;-73
2021/05/28 07:19:33;;;;;;;75.47;33.80;;;;;;;10.04;100.00;102012.56;5085626;28;20107;-72
2021/05/28 07:21:58;;;;;;;84.22;34.85;;;;;;;10.14;100.00;102011.25;5082281;28;20048;-73
2021/05/28 07:24:23;;;;;;;79.50;34.10;;;;;;;10.23;100.00;102015.41;5084326;28;20043;-72
2021/05/28 07:26:49;;;;;;;78.22;33.67;;;;;;;10.31;100.00;102011.44;5084078;28;20111;-73
2021/05/28 07:29:15;;;;;;;77.63;35.38;;;;;;;10.50;100.00;102012.38;5073223;28;20419;-73
2021/05/28 07:31:41;;;;;;;78.13;34.33;;;;;;;10.45;100.00;102014.41;5084292;28;20166;-73
2021/05/28 07:34:06;;;;;;;76.72;31.35;;;;;;;10.52;100.00;102013.22;5067058;28;20390;-73
2021/05/28 07:36:31;;;;;;;74.28;30.95;;;;;;;10.35;100.00;102023.81;5069179;28;20020;-73
2021/05/28 07:38:57;;;;;;;86.63;35.20;;;;;;;10.37;100.00;102013.84;5066103;28;20465;-73
2021/05/28 07:41:23;;;;;;;82.63;36.25;;;;;;;10.49;100.00;102013.31;5084486;28;20220;-73
2021/05/28 07:43:48;;;;;;;86.22;33.67;;;;;;;10.59;100.00;102019.19;5084030;28;20439;-72
2021/05/28 07:46:14;;;;;;;81.20;32.90;;;;;;;10.52;100.00;102026.63;5084741;28;20031;-73
2021/05/28 07:48:40;;;;;;;82.05;34.28;;;;;;;10.57;100.00;102025.53;5067495;28;20111;-73
2021/05/28 07:51:05;;;;;;;78.35;33.05;;;;;;;10.59;100.00;102026.34;5098609;28;20047;-73
2021/05/28 07:53:31;;;;;;;64.10;29.38;;;;;;;10.66;100.00;102023.34;5079816;28;20815;-73
2021/05/28 07:55:59;;;;;;;69.93;29.80;;;;;;;10.72;100.00;102031.13;5088596;28;20024;-72
2021/05/28 07:58:25;;;;;;;71.80;28.50;;;;;;;10.93;100.00;102030.16;5069944;28;20086;-74
2021/05/28 08:00:50;;;;;;;65.07;27.63;;;;;;;11.02;100.00;102026.19;5087278;28;20036;-73
2021/05/28 08:03:16;;;;;;;71.15;29.60;;;;;;;11.19;100.00;102031.66;5073577;28;20028;-73
2021/05/28 08:05:43;;;;;;;60.55;27.40;;;;;;;11.23;100.00;102035.94;5083424;28;20114;-73
2021/05/28 08:08:10;;;;;;;72.20;27.55;;;;;;;11.33;100.00;102034.59;5077822;28;20074;-73
2021/05/28 08:10:36;;;;;;;63.90;27.67;;;;;;;11.52;100.00;102034.63;5065122;28;20074;-73
2021/05/28 08:13:01;;;;;;;68.95;28.65;;;;;;;11.64;100.00;102044.78;5069007;28;20103;-73
2021/05/28 08:15:27;;;;;;;67.20;27.25;;;;;;;11.86;100.00;102033.88;5071132;28;20043;-73
2021/05/28 08:17:52;;;;;;;70.50;28.20;;;;;;;11.85;100.00;102044.75;5085142;28;20030;-73
2021/05/28 08:20:18;;;;;;;62.67;26.27;;;;;;;11.92;100.00;102033.59;5049688;28;20463;-73
2021/05/28 08:22:44;;;;;;;57.97;25.88;;;;;;;12.09;100.00;102036.34;5066878;28;20122;-73
2021/05/28 08:25:12;;;;;;;71.20;27.83;;;;;;;12.20;100.00;102033.09;5066443;28;20213;-72
2021/05/28 08:27:37;;;;;;;65.43;27.63;;;;;;;12.48;100.00;102032.56;5067041;28;20411;-73
2021/05/28 08:30:04;;;;;;;66.03;28.05;;;;;;;12.70;100.00;102026.94;5066195;28;20089;-73
2021/05/28 08:32:30;;;;;;;63.90;27.13;;;;;;;12.94;99.07;102031.91;5072238;28;20452;-73
2021/05/28 08:34:56;;;;;;;56.13;28.17;;;;;;;13.01;97.58;102031.59;5050607;28;20122;-73
2021/05/28 08:37:21;;;;;;;59.75;27.27;;;;;;;13.26;95.85;102029.34;5061943;28;20031;-72
2021/05/28 08:39:46;;;;;;;67.13;28.73;;;;;;;13.46;93.95;102031.78;5083340;28;20020;-74
2021/05/28 08:42:12;;;;;;;58.90;28.27;;;;;;;13.86;92.58;102034.94;5093280;28;20099;-73
2021/05/28 08:44:40;;;;;;;62.13;28.88;;;;;;;14.28;88.21;102032.47;5069694;28;20098;-73
2021/05/28 08:47:05;;;;;;;59.60;28.48;;;;;;;14.84;87.70;102034.50;5069868;28;20061;-73
2021/05/28 08:49:31;;;;;;;69.60;33.40;;;;;;;14.95;83.83;102036.53;5086374;28;20028;-73
2021/05/28 08:51:57;;;;;;;81.55;32.33;;;;;;;14.73;85.18;102041.53;5085856;28;20095;-73
2021/05/28 08:54:24;;;;;;;71.63;33.78;;;;;;;14.64;86.45;102039.34;5084042;28;20024;-74
2021/05/28 08:56:51;;;;;;;66.95;31.52;;;;;;;14.54;85.72;102036.34;5076029;28;20069;-73
2021/05/28 08:59:17;;;;;;;63.22;28.83;;;;;;;14.69;85.48;102039.97;5074648;28;20040;-74
2021/05/28 09:01:42;;;;;;;71.57;30.00;;;;;;;15.30;82.99;102047.88;5071233;28;20476;-74
2021/05/28 09:04:11;;;;;;;64.22;28.90;;;;;;;15.63;80.63;102050.28;5064567;28;20484;-74
2021/05/28 09:06:37;;;;;;;59.00;27.08;;;;;;;15.96;77.02;102052.66;5079612;28;20480;-74
2021/05/28 09:09:18;;;;;;;66.78;28.52;;;;;;;15.98;76.48;102050.72;5083620;28;20170;-73
2021/05/28 09:11:52;;;;;;;72.03;31.90;;;;;;;16.04;78.23;102045.75;5083311;28;20981;-74
2021/05/28 09:14:36;;;;;;;65.90;31.98;;;;;;;16.45;74.71;102048.41;5065155;28;20035;-74
2021/05/28 09:17:08;;;;;;;71.32;31.70;;;;;;;16.56;73.71;102043.09;5068245;28;20531;-73
2021/05/28 09:19:35;;;;;;;70.03;33.77;;;;;;;16.72;73.86;102042.97;5091482;28;20143;-73
2021/05/28 09:22:03;;;;;;;64.03;34.05;;;;;;;16.54;73.22;102039.63;5083125;28;20286;-73
2021/05/28 09:24:31;;;;;;;65.32;32.97;;;;;;;16.25;76.51;102037.16;5085163;28;20451;-74
2021/05/28 09:27:17;;;;;;;65.53;30.65;;;;;;;16.49;76.82;102030.94;5083586;28;20085;-74
2021/05/28 09:30:12;;;;;;;67.18;31.75;;;;;;;17.36;73.09;102030.28;5082883;28;20036;-74
2021/05/28 09:32:44;;;;;;;54.25;29.10;;;;;;;17.46;70.47;102033.22;5082019;28;20111;-74
2021/05/28 09:35:11;;;;;;;56.67;30.58;;;;;;;17.35;69.03;102042.09;5074334;28;20035;-74
2021/05/28 09:37:52;;;;;;;56.08;29.13;;;;;;;17.67;71.37;102045.25;5069550;28;20036;-74
2021/05/28 09:40:18;;;;;;;58.70;30.58;;;;;;;17.71;69.55;102047.63;5077969;28;20784;-74
2021/05/28 09:42:51;;;;;;;57.03;29.48;;;;;;;17.83;69.46;102050.44;5067294;28;20086;-73
2021/05/28 09:45:40;;;;;;;48.53;26.03;;;;;;;17.77;67.92;102049.88;5082791;28;20093;-74
2021/05/28 09:48:15;;;;;;;52.25;25.73;;;;;;;17.76;67.31;102044.59;5072755;28;20298;-74
2021/05/28 09:51:13;;;;;;;45.03;24.23;;;;;;;17.96;65.86;102043.13;5089526;28;20039;-74
2021/05/28 09:53:42;;;;;;;45.00;23.67;;;;;;;18.10;67.65;102037.50;5018879;28;20039;-74
2021/05/28 09:56:28;;;;;;;39.20;21.27;;;;;;;18.15;65.24;102032.59;5087683;28;20483;-74
2021/05/28 09:58:57;;;;;;;40.85;21.40;;;;;;;18.37;64.29;102030.00;5057761;28;20395;-73
2021/05/28 10:01:22;;;;;;;38.40;20.58;;;;;;;18.13;63.43;102023.69;5082355;28;20020;-74
2021/05/28 10:04:08;;;;;;;45.45;22.33;;;;;;;18.19;62.94;102020.50;5088819;28;20032;-74
2021/05/28 10:06:36;;;;;;;46.70;23.80;;;;;;;18.41;65.03;102014.28;5083022;28;20471;-74
2021/05/28 10:09:07;;;;;;;45.22;22.92;;;;;;;18.44;65.67;102014.06;5084257;28;20052;-74
2021/05/28 10:11:34;;;;;;;50.70;26.35;;;;;;;18.40;66.25;102016.16;5066935;28;20024;-74
2021/05/28 10:14:00;;;;;;;60.45;29.48;;;;;;;18.30;67.04;102017.84;5069914;28;20072;-74
2021/05/28 10:16:26;;;;;;;50.72;27.90;;;;;;;18.35;68.39;102015.63;5082940;28;20461;-74
2021/05/28 10:18:53;;;;;;;57.33;28.55;;;;;;;18.27;66.90;102012.63;5085730;28;20093;-74
2021/05/28 10:21:20;;;;;;;41.20;22.55;;;;;;;18.48;64.61;102018.28;5085979;28;20051;-74
2021/05/28 10:23:46;;;;;;;48.92;24.35;;;;;;;18.46;63.95;102014.81;5070239;28;20031;-74
2021/05/28 10:26:14;;;;;;;45.53;23.80;;;;;;;18.62;64.26;102019.97;5070765;28;20297;-74
2021/05/28 10:28:44;;;;;;;47.10;24.08;;;;;;;18.50;66.21;102011.75;5063713;28;20172;-73
2021/05/28 10:31:10;;;;;;;50.90;23.48;;;;;;;18.68;64.94;102012.22;5086703;28;20039;-74
2021/05/28 10:33:42;;;;;;;48.60;25.45;;;;;;;18.85;63.89;102002.72;5071833;28;20111;-74
2021/05/28 10:36:09;;;;;;;51.08;26.27;;;;;;;18.73;63.61;102006.41;5083312;28;21949;-74
2021/05/28 10:38:36;;;;;;;45.25;22.88;;;;;;;18.92;62.70;102001.25;5053855;28;20039;-75
2021/05/28 10:41:05;;;;;;;38.95;20.00;;;;;;;19.04;60.89;102000.28;5069941;28;20031;-74
2021/05/28 10:43:35;;;;;;;32.88;18.17;;;;;;;19.32;61.66;102004.34;5072909;28;20589;-75
2021/05/28 10:46:08;;;;;;;35.90;19.75;;;;;;;19.47;60.68;101996.84;5087327;28;20085;-75
2021/05/28 10:48:37;;;;;;;43.20;20.02;;;;;;;19.58;61.12;102005.00;5079871;28;20036;-75
2021/05/28 10:51:06;;;;;;;27.38;14.77;;;;;;;19.62;58.37;102001.94;5072996;28;20036;-75
2021/05/28 10:53:32;;;;;;;26.95;14.88;;;;;;;19.73;59.68;101992.84;5085570;28;20028;-75
2021/05/28 10:56:09;;;;;;;28.13;14.93;;;;;;;19.95;59.25;101994.66;5076524;28;20043;-76
2021/05/28 10:58:49;;;;;;;34.10;17.83;;;;;;;20.22;57.67;102003.25;5080725;28;20039;-75
2021/05/28 11:01:40;;;;;;;33.92;18.33;;;;;;;19.79;58.02;101995.06;5084649;28;20076;-75
2021/05/28 11:04:08;;;;;;;35.95;16.27;;;;;;;19.75;57.56;101991.72;5070933;28;20123;-74
2021/05/28 11:06:56;;;;;;;26.77;13.32;;;;;;;19.72;55.39;101991.13;5082041;28;20036;-75
2021/05/28 11:09:34;;;;;;;29.13;13.80;;;;;;;19.84;55.20;101990.09;5061222;28;20067;-75
2021/05/28 11:12:00;;;;;;;33.35;15.10;;;;;;;20.15;55.60;101983.81;5055244;28;20460;-74
2021/05/28 11:14:26;;;;;;;25.55;14.25;;;;;;;20.73;57.40;101984.31;5066316;28;20032;-75